createdAt,value
2018-09-08T00:02:23.249Z,3.10
2018-09-08T00:04:55.274Z,4.87
2018-09-08T00:07:33.182Z,4.50
2018-09-08T00:10:06.694Z,3.47
2018-09-08T00:12:38.764Z,3.63
2018-09-08T00:15:16.644Z,3.57
2018-09-08T00:17:54.635Z,3.10
2018-09-08T00:20:32.562Z,3.20
2018-09-08T00:23:10.435Z,3.53
2018-09-08T00:25:48.295Z,4.23
2018-09-08T00:28:27.194Z,3.90
2018-09-08T00:30:59.593Z,4.30
2018-09-08T00:33:31.620Z,4.07
2018-09-08T00:36:03.722Z,4.17
2018-09-08T00:38:36.164Z,4.33
2018-09-08T00:41:08.370Z,4.30
2018-09-08T00:43:40.461Z,4.07
2018-09-08T00:46:12.518Z,3.87
2018-09-08T00:48:44.515Z,4.00
2018-09-08T00:51:16.604Z,4.10
2018-09-08T00:53:48.658Z,4.03
2018-09-08T00:56:20.686Z,4.23
2018-09-08T00:58:58.434Z,4.07
2018-09-08T01:01:30.990Z,4.70
2018-09-08T01:04:03.084Z,4.83
2018-09-08T01:06:35.111Z,3.83
2018-09-08T01:09:07.381Z,4.60
2018-09-08T01:11:39.479Z,4.80
2018-09-08T01:14:11.525Z,4.43
2018-09-08T01:16:43.546Z,4.13
2018-09-08T01:19:15.793Z,4.57
2018-09-08T01:21:47.942Z,5.30
2018-09-08T01:24:20.027Z,4.83
2018-09-08T01:26:52.091Z,5.30
2018-09-08T01:29:24.199Z,4.23
2018-09-08T01:31:58.503Z,4.60
2018-09-08T01:34:30.664Z,6.23
2018-09-08T01:37:02.721Z,6.67
2018-09-08T01:39:34.804Z,5.40
2018-09-08T01:42:06.868Z,6.17
2018-09-08T01:44:39.002Z,4.93
2018-09-08T01:47:11.124Z,4.93
2018-09-08T01:49:43.251Z,5.07
2018-09-08T01:52:15.364Z,6.90
2018-09-08T01:54:47.473Z,4.33
2018-09-08T01:57:19.494Z,4.60
2018-09-08T01:59:51.592Z,6.43
2018-09-08T02:02:23.777Z,5.47
2018-09-08T02:04:55.866Z,4.43
2018-09-08T02:07:27.955Z,4.63
2018-09-08T02:09:59.998Z,4.33
2018-09-08T02:12:32.019Z,5.53
2018-09-08T02:15:04.110Z,5.23
2018-09-08T02:17:36.222Z,4.30
2018-09-08T02:20:08.739Z,4.50
2018-09-08T02:22:40.775Z,4.50
2018-09-08T02:25:12.865Z,4.97
2018-09-08T02:27:44.929Z,5.23
2018-09-08T02:30:16.983Z,4.30
2018-09-08T02:32:49.047Z,5.33
2018-09-08T02:35:21.166Z,4.83
2018-09-08T02:37:53.297Z,5.17
2018-09-08T02:40:25.396Z,5.60
2018-09-08T02:42:57.460Z,5.87
2018-09-08T02:45:29.508Z,5.20
2018-09-08T02:48:01.558Z,4.40
2018-09-08T02:50:36.921Z,5.60
2018-09-08T02:53:09.243Z,4.70
2018-09-08T02:55:41.029Z,5.17
2018-09-08T02:58:12.284Z,5.00
2018-09-08T03:00:43.531Z,5.20
2018-09-08T03:03:14.791Z,5.67
2018-09-08T03:05:46.090Z,5.67
2018-09-08T03:08:17.287Z,5.90
2018-09-08T03:10:48.513Z,5.27
2018-09-08T03:13:19.762Z,6.40
2018-09-08T03:15:51.007Z,6.83
2018-09-08T03:18:22.399Z,5.50
2018-09-08T03:20:53.664Z,5.17
2018-09-08T03:23:24.907Z,6.13
2018-09-08T03:25:56.279Z,5.83
2018-09-08T03:28:27.628Z,6.37
2018-09-08T03:30:58.879Z,8.90
2018-09-08T03:33:30.176Z,6.93
2018-09-08T03:36:01.388Z,6.10
2018-09-08T03:38:32.816Z,6.53
2018-09-08T03:41:04.063Z,7.00
2018-09-08T03:43:35.306Z,8.43
2018-09-08T03:46:06.647Z,7.50
2018-09-08T03:48:37.881Z,6.77
2018-09-08T03:51:09.216Z,6.07
2018-09-08T03:53:40.475Z,7.30
2018-09-08T03:56:11.763Z,6.37
2018-09-08T03:58:42.970Z,6.70
2018-09-08T04:01:14.239Z,6.93
2018-09-08T04:03:46.281Z,6.60
2018-09-08T04:06:18.386Z,7.10
2018-09-08T04:08:50.523Z,6.67
2018-09-08T04:11:22.642Z,6.40
2018-09-08T04:13:54.654Z,8.37
2018-09-08T04:16:26.742Z,8.03
2018-09-08T04:18:58.762Z,9.27
2018-09-08T04:21:30.956Z,9.10
2018-09-08T04:24:03.089Z,10.27
2018-09-08T04:26:35.231Z,9.80
2018-09-08T04:29:07.362Z,11.40
2018-09-08T04:31:39.389Z,14.73
2018-09-08T04:34:11.552Z,13.60
2018-09-08T04:36:43.578Z,11.27
2018-09-08T04:39:15.875Z,10.47
2018-09-08T04:41:47.957Z,10.27
2018-09-08T04:44:20.045Z,9.80
2018-09-08T04:46:52.132Z,10.20
2018-09-08T04:49:24.238Z,8.43
2018-09-08T04:51:56.299Z,9.07
2018-09-08T04:54:28.358Z,8.57
2018-09-08T04:57:00.444Z,7.50
2018-09-08T04:59:32.593Z,8.17
2018-09-08T05:02:04.626Z,8.37
2018-09-08T05:04:36.725Z,8.33
2018-09-08T05:07:08.830Z,7.93
2018-09-08T05:09:40.903Z,7.30
2018-09-08T05:12:13.066Z,8.13
2018-09-08T05:14:45.091Z,7.03
2018-09-08T05:17:17.253Z,8.30
2018-09-08T05:19:49.600Z,8.73
2018-09-08T05:22:21.723Z,9.37
2018-09-08T05:24:53.878Z,7.90
2018-09-08T05:27:26.166Z,8.60
2018-09-08T05:29:58.366Z,8.03
2018-09-08T05:32:30.498Z,7.83
2018-09-08T05:35:02.726Z,8.80
2018-09-08T05:37:34.814Z,8.27
2018-09-08T05:40:10.732Z,7.80
2018-09-08T05:42:42.844Z,7.13
2018-09-08T05:45:14.947Z,7.30
2018-09-08T05:47:46.989Z,5.30
2018-09-08T05:50:19.084Z,5.20
2018-09-08T05:52:51.225Z,5.13
2018-09-08T05:55:23.312Z,5.47
2018-09-08T05:57:55.333Z,4.80
2018-09-08T06:00:27.472Z,5.27
2018-09-08T06:02:59.537Z,4.37
2018-09-08T06:05:31.588Z,4.67
2018-09-08T06:08:03.624Z,4.40
2018-09-08T06:10:35.696Z,3.40
2018-09-08T06:13:07.812Z,2.97
2018-09-08T06:15:39.908Z,3.60
2018-09-08T06:18:12.083Z,3.33
2018-09-08T06:20:44.226Z,3.33
2018-09-08T06:23:16.307Z,2.90
2018-09-08T06:25:48.486Z,3.10
2018-09-08T06:28:20.652Z,3.13
2018-09-08T06:30:53.347Z,2.77
2018-09-08T06:33:25.509Z,3.10
2018-09-08T06:35:57.554Z,2.50
2018-09-08T06:38:29.602Z,2.93
2018-09-08T06:41:01.671Z,3.00
2018-09-08T06:43:34.146Z,2.57
2018-09-08T06:46:06.712Z,2.50
2018-09-08T06:48:38.823Z,2.60
2018-09-08T06:51:12.535Z,2.50
2018-09-08T06:53:45.090Z,2.72
2018-09-08T06:56:18.850Z,2.60
2018-09-08T06:58:53.624Z,2.47
2018-09-08T07:01:26.035Z,3.20
2018-09-08T07:03:58.697Z,2.08
2018-09-08T07:06:32.572Z,2.27
2018-09-08T07:09:07.293Z,2.40
2018-09-08T07:11:41.583Z,2.47
2018-09-08T07:14:13.705Z,2.05
2018-09-08T07:16:50.489Z,2.30
2018-09-08T07:19:23.664Z,1.92
2018-09-08T07:21:56.897Z,1.60
2018-09-08T07:24:29.344Z,1.87
2018-09-08T07:27:02.351Z,2.30
2018-09-08T07:29:34.924Z,2.25
2018-09-08T07:32:08.309Z,2.00
2018-09-08T07:34:40.686Z,2.20
2018-09-08T07:37:12.918Z,2.05
2018-09-08T07:39:45.174Z,3.12
2018-09-08T07:42:17.198Z,1.50
2018-09-08T07:44:49.245Z,2.83
2018-09-08T07:47:21.314Z,3.00
2018-09-08T07:49:53.311Z,5.08
2018-09-08T07:52:25.418Z,7.00
2018-09-08T07:54:57.576Z,10.45
2018-09-08T07:57:29.644Z,4.40
2018-09-08T08:00:01.690Z,2.25
2018-09-08T08:02:33.768Z,1.55
2018-09-08T08:05:05.822Z,2.27
2018-09-08T08:07:37.927Z,1.72
2018-09-08T08:10:10.068Z,1.45
2018-09-08T08:12:42.110Z,1.57
2018-09-08T08:15:14.150Z,1.55
2018-09-08T08:17:46.186Z,1.35
2018-09-08T08:20:18.232Z,1.57
2018-09-08T08:22:50.306Z,1.62
2018-09-08T08:25:22.337Z,1.55
2018-09-08T08:27:54.405Z,1.50
2018-09-08T08:30:26.425Z,1.50
2018-09-08T08:32:58.462Z,1.47
2018-09-08T08:35:30.528Z,1.47
2018-09-08T08:38:02.572Z,1.77
2018-09-08T08:40:34.607Z,1.65
2018-09-08T08:43:06.703Z,1.40
2018-09-08T08:45:38.698Z,1.20
2018-09-08T08:48:10.769Z,1.32
2018-09-08T08:50:54.488Z,1.30
2018-09-08T08:53:38.082Z,1.05
2018-09-08T08:56:10.151Z,1.45
2018-09-08T08:58:42.206Z,1.72
2018-09-08T09:01:14.218Z,1.35
2018-09-08T09:03:46.259Z,4.65
2018-09-08T09:06:18.261Z,5.78
2018-09-08T09:08:52.641Z,1.70
2018-09-08T09:11:25.043Z,1.25
2018-09-08T09:13:57.075Z,1.55
2018-09-08T09:16:29.111Z,1.87
2018-09-08T09:19:24.694Z,1.42
2018-09-08T09:22:08.330Z,1.10
2018-09-08T09:24:52.770Z,1.27
2018-09-08T09:27:24.606Z,1.37
2018-09-08T09:29:57.009Z,7.60
2018-09-08T09:32:29.076Z,2.77
2018-09-08T09:35:01.192Z,1.57
2018-09-08T09:37:33.434Z,2.90
2018-09-08T09:40:06.338Z,2.98
2018-09-08T09:42:38.453Z,2.20
2018-09-08T09:45:11.057Z,1.77
2018-09-08T09:47:43.183Z,3.20
2018-09-08T09:50:15.231Z,2.10
2018-09-08T09:52:47.228Z,1.95
2018-09-08T09:55:19.257Z,2.22
2018-09-08T09:57:51.251Z,2.40
2018-09-08T10:00:29.033Z,2.00
2018-09-08T10:03:06.287Z,2.08
2018-09-08T10:05:38.434Z,3.80
2018-09-08T10:08:10.473Z,2.85
2018-09-08T10:13:21.206Z,2.25
2018-09-08T10:15:53.282Z,4.55
2018-09-08T10:18:25.390Z,1.30
2018-09-08T10:20:57.436Z,1.25
2018-09-08T10:23:29.537Z,1.35
2018-09-08T10:26:01.649Z,1.42
2018-09-08T10:28:33.662Z,1.20
2018-09-08T10:31:05.683Z,1.37
2018-09-08T10:33:37.731Z,2.30
2018-09-08T10:36:09.715Z,3.12
2018-09-08T10:38:41.778Z,1.10
2018-09-08T10:41:13.764Z,1.07
2018-09-08T10:43:45.799Z,1.20
2018-09-08T10:46:17.860Z,1.40
2018-09-08T10:48:49.913Z,1.85
2018-09-08T10:52:34.175Z,1.67
2018-09-08T10:55:06.257Z,2.52
2018-09-08T10:57:38.259Z,1.50
2018-09-08T11:00:11.187Z,1.00
2018-09-08T11:02:43.559Z,2.02
2018-09-08T11:05:15.953Z,1.32
2018-09-08T11:07:47.999Z,1.30
2018-09-08T11:10:20.645Z,1.22
2018-09-08T11:12:53.170Z,1.40
2018-09-08T11:15:25.284Z,1.45
2018-09-08T11:17:57.497Z,1.25
2018-09-08T11:20:29.500Z,1.20
2018-09-08T11:23:01.503Z,1.50
2018-09-08T11:25:33.558Z,1.52
2018-09-08T11:28:05.562Z,1.70
2018-09-08T11:30:37.643Z,1.52
2018-09-08T11:33:09.580Z,1.30
2018-09-08T11:35:41.566Z,0.90
2018-09-08T11:38:13.655Z,1.12
2018-09-08T11:40:45.653Z,1.85
2018-09-08T11:43:17.734Z,1.67
2018-09-08T11:45:49.786Z,1.52
2018-09-08T11:48:21.823Z,1.25
2018-09-08T11:50:53.993Z,1.05
2018-09-08T11:53:26.066Z,1.30
2018-09-08T11:55:58.097Z,1.50
2018-09-08T11:58:30.134Z,1.22
2018-09-08T12:01:02.170Z,1.05
2018-09-08T12:03:34.271Z,1.20
2018-09-08T12:06:06.285Z,1.12
2018-09-08T12:08:38.306Z,1.35
2018-09-08T12:11:10.350Z,0.98
2018-09-08T12:13:42.395Z,1.17
2018-09-08T12:16:14.458Z,1.30
2018-09-08T12:18:46.514Z,1.40
2018-09-08T12:21:18.733Z,1.35
2018-09-08T12:23:50.797Z,1.40
2018-09-08T12:26:22.835Z,1.10
2018-09-08T12:28:54.918Z,1.20
2018-09-08T12:31:26.962Z,0.50
2018-09-08T12:33:59.070Z,0.98
2018-09-08T12:36:31.114Z,2.30
2018-09-08T12:39:04.697Z,0.80
2018-09-08T12:41:36.724Z,2.95
2018-09-08T12:44:08.783Z,1.40
2018-09-08T12:46:40.811Z,1.30
2018-09-08T12:49:12.863Z,1.42
2018-09-08T12:51:44.849Z,4.12
2018-09-08T12:54:16.979Z,1.47
2018-09-08T12:56:48.973Z,1.55
2018-09-08T12:59:21.039Z,1.22
2018-09-08T13:01:53.083Z,1.65
2018-09-08T13:04:25.115Z,1.45
2018-09-08T13:06:57.126Z,1.10
2018-09-08T13:09:29.173Z,1.67
2018-09-08T13:12:01.214Z,1.02
2018-09-08T13:14:33.236Z,1.02
2018-09-08T13:17:05.249Z,1.45
2018-09-08T13:19:37.274Z,0.98
2018-09-08T13:22:09.316Z,1.50
2018-09-08T13:24:41.343Z,2.05
2018-09-08T13:27:13.362Z,1.02
2018-09-08T13:29:45.351Z,1.50
2018-09-08T13:32:17.389Z,0.93
2018-09-08T13:34:49.463Z,1.30
2018-09-08T13:37:21.641Z,1.25
2018-09-08T13:39:53.754Z,1.42
2018-09-08T13:42:25.673Z,1.40
2018-09-08T13:44:57.713Z,1.17
2018-09-08T13:47:29.774Z,1.27
2018-09-08T13:50:01.813Z,1.17
2018-09-08T13:52:33.814Z,0.93
2018-09-08T13:55:05.907Z,1.00
2018-09-08T13:57:37.902Z,1.47
2018-09-08T14:00:09.927Z,1.27
2018-09-08T14:02:42.048Z,1.22
2018-09-08T14:05:14.138Z,1.25
2018-09-08T14:07:49.062Z,1.30
2018-09-08T14:10:21.069Z,1.07
2018-09-08T14:12:53.159Z,1.25
2018-09-08T14:15:25.230Z,1.32
2018-09-08T14:17:57.323Z,1.37
2018-09-08T14:20:29.345Z,1.30
2018-09-08T14:23:01.379Z,1.20
2018-09-08T14:25:33.405Z,1.10
2018-09-08T14:28:05.483Z,1.20
2018-09-08T14:30:37.493Z,1.10
2018-09-08T14:33:09.501Z,1.00
2018-09-08T14:35:41.545Z,1.00
2018-09-08T14:38:13.774Z,1.50
2018-09-08T14:40:45.842Z,1.45
2018-09-08T14:43:17.915Z,1.32
2018-09-08T14:45:50.152Z,1.00
2018-09-08T14:48:22.234Z,1.17
2018-09-08T14:50:54.240Z,0.93
2018-09-08T14:53:26.304Z,1.35
2018-09-08T14:55:58.351Z,1.47
2018-09-08T14:58:30.468Z,1.15
2018-09-08T15:01:02.532Z,1.20
2018-09-08T15:03:34.945Z,1.40
2018-09-08T15:06:06.974Z,1.12
2018-09-08T15:08:39.029Z,2.58
2018-09-08T15:11:11.106Z,2.12
2018-09-08T15:13:43.134Z,1.07
2018-09-08T15:16:15.164Z,1.50
2018-09-08T15:18:47.234Z,1.10
2018-09-08T15:21:19.281Z,1.27
2018-09-08T15:23:51.374Z,2.20
2018-09-08T15:26:23.464Z,1.67
2018-09-08T15:28:55.502Z,1.47
2018-09-08T15:31:27.588Z,1.40
2018-09-08T15:33:59.721Z,1.20
2018-09-08T15:36:31.894Z,1.77
2018-09-08T15:39:06.318Z,1.20
2018-09-08T15:41:38.386Z,1.15
2018-09-08T15:44:10.915Z,1.00
2018-09-08T15:46:43.010Z,1.40
2018-09-08T15:49:15.079Z,1.30
2018-09-08T15:51:47.190Z,0.98
2018-09-08T15:54:19.222Z,1.10
2018-09-08T15:56:51.339Z,1.47
2018-09-08T15:59:23.332Z,1.12
2018-09-08T16:01:55.373Z,1.20
2018-09-08T16:04:27.437Z,1.30
2018-09-08T16:06:59.458Z,3.00
2018-09-08T16:09:31.467Z,1.47
2018-09-08T16:12:03.513Z,1.87
2018-09-08T16:14:35.627Z,1.37
2018-09-08T16:17:07.994Z,2.75
2018-09-08T16:19:40.066Z,2.85
2018-09-08T16:22:12.111Z,1.87
2018-09-08T16:24:44.142Z,2.02
2018-09-08T16:27:16.167Z,1.33
2018-09-08T16:29:48.230Z,1.10
2018-09-08T16:32:20.279Z,1.40
2018-09-08T16:34:52.303Z,1.07
2018-09-08T16:37:24.348Z,2.37
2018-09-08T16:39:56.566Z,2.50
2018-09-08T16:42:29.233Z,3.17
2018-09-08T16:45:02.847Z,5.70
2018-09-08T16:47:35.245Z,7.43
2018-09-08T16:50:08.481Z,6.47
2018-09-08T16:52:40.558Z,7.03
2018-09-08T16:55:12.630Z,5.50
2018-09-08T16:57:44.696Z,4.73
2018-09-08T17:00:16.802Z,4.13
2018-09-08T17:02:48.903Z,3.00
2018-09-08T17:05:21.014Z,3.30
2018-09-08T17:07:53.079Z,3.27
2018-09-08T17:10:25.237Z,4.23
2018-09-08T17:12:57.405Z,4.33
2018-09-08T17:15:29.794Z,4.17
2018-09-08T17:18:01.948Z,4.53
2018-09-08T17:20:34.014Z,5.27
2018-09-08T17:23:06.183Z,4.57
2018-09-08T17:25:38.591Z,5.93
2018-09-08T17:28:10.725Z,6.07
2018-09-08T17:30:42.851Z,4.53
2018-09-08T17:33:14.946Z,4.43
2018-09-08T17:35:47.047Z,3.73
2018-09-08T17:38:19.161Z,4.13
2018-09-08T17:40:51.241Z,3.87
2018-09-08T17:43:23.245Z,4.37
2018-09-08T17:45:55.368Z,4.50
2018-09-08T17:48:27.541Z,4.30
2018-09-08T17:50:59.620Z,5.03
2018-09-08T17:53:31.671Z,8.30
2018-09-08T17:56:03.794Z,9.13
2018-09-08T17:58:36.005Z,5.60
2018-09-08T18:01:08.146Z,4.30
2018-09-08T18:03:40.215Z,6.07
2018-09-08T18:06:12.269Z,3.97
2018-09-08T18:08:44.334Z,5.87
2018-09-08T18:11:16.407Z,12.30
2018-09-08T18:13:48.446Z,13.10
2018-09-08T18:16:20.509Z,11.10
2018-09-08T18:18:52.552Z,7.03
2018-09-08T18:21:24.576Z,7.87
2018-09-08T18:23:56.645Z,7.70
2018-09-08T18:26:29.664Z,6.47
2018-09-08T18:29:01.843Z,6.50
2018-09-08T18:31:34.234Z,6.03
2018-09-08T18:34:06.511Z,8.03
2018-09-08T18:36:38.617Z,13.30
2018-09-08T18:39:10.673Z,11.27
2018-09-08T18:41:42.745Z,13.80
2018-09-08T18:44:15.096Z,18.10
2018-09-08T18:46:47.304Z,30.73
2018-09-08T18:49:19.378Z,29.80
2018-09-08T18:51:51.627Z,31.50
2018-09-08T18:54:23.677Z,32.30
2018-09-08T18:56:55.718Z,26.00
2018-09-08T18:59:27.734Z,29.37
2018-09-08T19:01:59.873Z,35.17
2018-09-08T19:04:31.930Z,33.17
2018-09-08T19:07:03.975Z,37.60
2018-09-08T19:09:36.038Z,32.90
2018-09-08T19:12:08.098Z,30.20
2018-09-08T19:14:45.873Z,32.40
2018-09-08T19:17:22.364Z,57.93
2018-09-08T19:20:04.739Z,56.17
2018-09-08T19:22:36.947Z,37.27
2018-09-08T19:25:08.966Z,24.13
2018-09-08T19:27:40.978Z,14.10
2018-09-08T19:30:13.037Z,22.50
2018-09-08T19:32:45.098Z,28.10
2018-09-08T19:35:22.962Z,32.07
2018-09-08T19:37:55.022Z,27.57
2018-09-08T19:40:32.763Z,19.03
2018-09-08T19:43:04.959Z,20.93
2018-09-08T19:45:37.406Z,18.93
2018-09-08T19:48:15.702Z,19.43
2018-09-08T19:50:47.760Z,17.03
2018-09-08T19:53:25.678Z,14.27
2018-09-08T19:55:57.793Z,11.50
2018-09-08T19:58:35.550Z,9.03
2018-09-08T20:01:07.590Z,7.13
2018-09-08T20:03:39.627Z,6.90
2018-09-08T20:06:11.690Z,6.10
2018-09-08T20:08:43.738Z,5.20
2018-09-08T20:11:15.809Z,4.57
2018-09-08T20:13:47.878Z,4.67
2018-09-08T20:16:19.898Z,3.93
2018-09-08T20:18:51.930Z,4.47
2018-09-08T20:21:23.969Z,3.63
2018-09-08T20:23:56.022Z,7.33
2018-09-08T20:26:28.101Z,8.37
2018-09-08T20:29:00.087Z,6.63
2018-09-08T20:31:32.138Z,6.43
2018-09-08T20:34:04.165Z,8.53
2018-09-08T20:36:36.211Z,5.37
2018-09-08T20:39:08.301Z,4.83
2018-09-08T20:41:40.378Z,6.43
2018-09-08T20:44:12.405Z,5.47
2018-09-08T20:46:44.523Z,5.00
2018-09-08T20:49:17.066Z,4.23
2018-09-08T20:51:49.115Z,4.07
2018-09-08T20:54:21.226Z,4.20
2018-09-08T20:56:53.247Z,3.90
2018-09-08T20:59:25.313Z,4.67
2018-09-08T21:01:57.368Z,3.70
2018-09-08T21:04:29.405Z,4.20
2018-09-08T21:07:01.416Z,3.60
2018-09-08T21:09:33.483Z,3.53
2018-09-08T21:12:05.555Z,3.67
2018-09-08T21:14:38.594Z,4.27
2018-09-08T21:17:10.802Z,6.10
2018-09-08T21:19:43.004Z,4.40
2018-09-08T21:22:14.971Z,3.30
2018-09-08T21:24:47.002Z,2.90
2018-09-08T21:27:19.022Z,3.47
2018-09-08T21:29:51.125Z,4.63
2018-09-08T21:32:23.194Z,4.23
2018-09-08T21:34:55.249Z,3.63
2018-09-08T21:37:27.546Z,7.03
2018-09-08T21:39:59.579Z,5.90
2018-09-08T21:42:31.618Z,4.23
2018-09-08T21:45:03.719Z,5.03
2018-09-08T21:47:35.762Z,6.77
2018-09-08T21:50:07.754Z,5.07
2018-09-08T21:52:39.761Z,5.73
2018-09-08T21:55:11.874Z,5.07
2018-09-08T21:57:44.076Z,5.00
2018-09-08T22:00:16.078Z,9.10
2018-09-08T22:02:48.112Z,4.87
2018-09-08T22:05:20.161Z,4.50
2018-09-08T22:07:52.226Z,5.40
2018-09-08T22:10:24.267Z,6.10
2018-09-08T22:12:56.281Z,5.50
2018-09-08T22:15:28.284Z,4.60
2018-09-08T22:18:00.391Z,4.80
2018-09-08T22:20:32.380Z,5.10
2018-09-08T22:23:04.552Z,4.53
2018-09-08T22:25:36.581Z,4.40
2018-09-08T22:28:08.582Z,4.70
2018-09-08T22:30:40.594Z,3.90
2018-09-08T22:33:12.870Z,3.77
2018-09-08T22:35:44.921Z,3.60
2018-09-08T22:38:16.933Z,3.50
2018-09-08T22:40:49.052Z,3.63
2018-09-08T22:43:21.059Z,3.23
2018-09-08T22:45:53.072Z,3.93
2018-09-08T22:48:25.101Z,3.27
2018-09-08T22:50:57.132Z,3.20
2018-09-08T22:53:29.175Z,3.47
2018-09-08T22:56:01.211Z,5.13
2018-09-08T22:58:33.215Z,3.90
2018-09-08T23:01:05.285Z,6.73
2018-09-08T23:03:37.273Z,3.20
2018-09-08T23:06:09.297Z,3.93
2018-09-08T23:08:41.299Z,5.20
2018-09-08T23:11:13.334Z,2.97
2018-09-08T23:13:45.335Z,3.60
2018-09-08T23:16:17.353Z,5.87
2018-09-08T23:18:49.354Z,4.60
2018-09-08T23:21:21.435Z,3.40
2018-09-08T23:23:53.461Z,5.10
2018-09-08T23:26:25.491Z,2.80
2018-09-08T23:28:57.507Z,2.70
2018-09-08T23:31:29.544Z,3.67
2018-09-08T23:34:01.633Z,4.10
2018-09-08T23:36:33.683Z,4.13
2018-09-08T23:39:05.993Z,3.73
2018-09-08T23:41:38.001Z,2.63
2018-09-08T23:44:10.003Z,4.47
2018-09-08T23:46:42.017Z,2.97
2018-09-08T23:49:14.063Z,2.47
2018-09-08T23:51:46.201Z,3.17
2018-09-08T23:54:18.190Z,3.73
2018-09-08T23:56:50.224Z,3.90
2018-09-08T23:59:22.288Z,3.63
